Time;durP1;ratioP1;P1;durP2;ratioP2;P2;SDS_P1;SDS_P2;PMS_P1;PMS_P2;Temp;Humidity;BMP_temperature;BMP_pressure;BME280_temperature;BME280_humidity;BME280_pressure;Samples;Min_cycle;Max_cycle;Signal;HPM_P1;HPM_P2
2021/04/14 00:00:53;;;;;;;6.63;1.93;;;;;;;0.86;76.12;102038.81;4993761;28;20174;-68
2021/04/14 00:03:20;;;;;;;12.47;2.07;;;;;;;0.90;75.90;102043.22;4994779;28;20177;-68
2021/04/14 00:05:46;;;;;;;15.93;2.20;;;;;;;0.90;76.46;102040.59;4994086;28;20233;-68
2021/04/14 00:08:12;;;;;;;9.90;2.03;;;;;;;0.84;76.20;102047.56;4995049;28;20197;-68
2021/04/14 00:10:38;;;;;;;9.87;2.33;;;;;;;0.77;76.67;102038.75;4993710;28;20185;-68
2021/04/14 00:13:05;;;;;;;13.77;2.63;;;;;;;0.77;76.73;102037.88;4993899;28;20182;-68
2021/04/14 00:15:35;;;;;;;15.10;2.20;;;;;;;0.84;76.81;102047.56;4993660;28;20202;-67
2021/04/14 00:18:00;;;;;;;16.53;3.40;;;;;;;0.75;76.92;102042.25;4994808;28;20229;-68
2021/04/14 00:20:26;;;;;;;8.53;2.23;;;;;;;0.70;77.04;102041.31;4993366;28;20585;-67
2021/04/14 00:22:51;;;;;;;8.70;2.10;;;;;;;0.73;76.91;102047.47;4995029;28;20186;-67
2021/04/14 00:25:23;;;;;;;9.97;2.17;;;;;;;0.70;77.20;102044.81;4994469;28;20200;-67
2021/04/14 00:27:48;;;;;;;14.67;2.60;;;;;;;0.63;77.42;102049.16;4994689;28;20185;-67
2021/04/14 00:30:14;;;;;;;13.23;3.07;;;;;;;0.63;77.12;102045.66;4994105;28;20251;-67
2021/04/14 00:32:39;;;;;;;8.27;2.90;;;;;;;0.55;78.10;102047.34;4994232;28;20190;-67
2021/04/14 00:35:05;;;;;;;11.73;2.20;;;;;;;0.53;78.26;102043.84;4994381;28;20190;-68
2021/04/14 00:37:31;;;;;;;8.13;1.80;;;;;;;0.52;78.27;102042.94;4992898;28;20182;-67
2021/04/14 00:39:57;;;;;;;7.47;1.80;;;;;;;0.47;78.42;102043.78;4992834;28;20202;-67
2021/04/14 00:42:22;;;;;;;6.63;1.87;;;;;;;0.46;78.41;102047.28;4992907;28;20545;-67
2021/04/14 00:44:48;;;;;;;8.30;1.90;;;;;;;0.51;78.05;102048.19;4994146;28;20261;-67
2021/04/14 00:47:13;;;;;;;13.33;2.30;;;;;;;0.43;78.72;102048.16;4993995;28;20205;-66
2021/04/14 00:49:39;;;;;;;7.03;1.80;;;;;;;0.34;79.00;102039.28;4994005;28;20223;-67
2021/04/14 00:52:04;;;;;;;15.20;2.60;;;;;;;0.27;78.96;102039.25;4994023;28;20173;-67
2021/04/14 00:54:29;;;;;;;5.63;1.93;;;;;;;0.26;79.59;102040.09;4993863;28;20189;-67
2021/04/14 00:56:55;;;;;;;11.13;2.17;;;;;;;0.28;79.77;102042.75;4992650;28;20208;-67
2021/04/14 00:59:20;;;;;;;10.67;2.30;;;;;;;0.26;79.38;102044.47;4994104;28;20201;-67
2021/04/14 01:01:45;;;;;;;9.80;2.30;;;;;;;0.29;79.66;102034.88;4992889;28;20601;-67
2021/04/14 01:04:12;;;;;;;11.07;2.33;;;;;;;0.25;79.47;102027.84;4994234;28;20204;-67
2021/04/14 01:06:38;;;;;;;12.07;2.77;;;;;;;0.20;80.08;102029.56;4993694;28;20178;-67
2021/04/14 01:09:03;;;;;;;13.87;2.30;;;;;;;0.22;79.87;102037.44;4993601;28;20688;-67
2021/04/14 01:11:28;;;;;;;8.47;2.13;;;;;;;0.12;80.31;102041.75;4992812;28;20635;-67
2021/04/14 01:13:54;;;;;;;12.17;2.67;;;;;;;0.17;80.60;102049.66;4992385;28;20180;-67
2021/04/14 01:16:19;;;;;;;9.27;2.23;;;;;;;0.19;80.42;102038.31;4992947;28;20177;-67
2021/04/14 01:18:45;;;;;;;9.67;1.93;;;;;;;0.12;80.55;102048.75;4994301;28;20197;-67
2021/04/14 01:21:31;;;;;;;14.10;3.20;;;;;;;0.08;80.53;102047.84;4995502;28;20178;-67
2021/04/14 01:23:56;;;;;;;8.47;2.67;;;;;;;-0.02;81.19;102053.84;4992689;28;20186;-67
2021/04/14 01:26:21;;;;;;;9.40;2.30;;;;;;;-0.03;81.72;102052.06;4993711;28;20201;-66
2021/04/14 01:28:47;;;;;;;14.57;2.47;;;;;;;-0.04;82.00;102055.56;4993613;28;20209;-68
2021/04/14 01:31:16;;;;;;;10.17;2.47;;;;;;;-0.11;82.00;102048.50;4993617;28;20634;-66
2021/04/14 01:33:42;;;;;;;20.53;2.57;;;;;;;-0.13;81.81;102050.25;4976443;28;20186;-67
2021/04/14 01:36:08;;;;;;;10.53;2.40;;;;;;;-0.14;82.33;102051.09;4992406;28;20649;-67
2021/04/14 01:38:34;;;;;;;12.27;2.47;;;;;;;-0.20;82.58;102049.28;4992621;28;20232;-67
2021/04/14 01:41:02;;;;;;;10.97;2.63;;;;;;;-0.23;83.10;102051.00;4976175;28;20589;-66
2021/04/14 01:43:28;;;;;;;14.47;2.50;;;;;;;-0.23;83.19;102048.38;4992268;28;20261;-67
2021/04/14 01:45:54;;;;;;;27.87;3.00;;;;;;;-0.20;83.47;102048.41;4992324;28;20209;-67
2021/04/14 01:48:19;;;;;;;17.07;2.50;;;;;;;-0.19;83.31;102050.19;4993302;28;20201;-67
2021/04/14 01:50:45;;;;;;;10.63;2.87;;;;;;;-0.26;83.39;102050.97;4993699;28;20182;-66
2021/04/14 01:53:14;;;;;;;14.43;2.97;;;;;;;-0.14;83.26;102058.97;4992211;28;20550;-67
2021/04/14 01:55:40;;;;;;;12.07;2.80;;;;;;;-0.12;83.41;102057.25;4992206;28;20272;-66
2021/04/14 01:58:09;;;;;;;13.00;2.40;;;;;;;-0.25;83.97;102051.00;4992528;28;20265;-67
2021/04/14 02:00:42;;;;;;;10.37;3.13;;;;;;;-0.27;84.03;102049.22;4992408;28;20178;-67
2021/04/14 02:03:07;;;;;;;17.90;3.60;;;;;;;-0.28;83.55;102050.09;4976225;28;20203;-67
2021/04/14 02:05:33;;;;;;;13.83;2.73;;;;;;;-0.26;84.33;102053.59;4993469;28;20178;-67
2021/04/14 02:08:00;;;;;;;11.77;2.47;;;;;;;-0.27;84.27;102050.09;4992150;28;20193;-67
2021/04/14 02:10:27;;;;;;;12.97;2.53;;;;;;;-0.33;84.47;102045.69;4991895;28;20202;-67
2021/04/14 02:12:55;;;;;;;14.87;2.50;;;;;;;-0.21;84.14;102046.66;4992055;28;20188;-67
2021/04/14 02:15:23;;;;;;;12.97;2.60;;;;;;;-0.23;83.86;102045.75;4992032;28;20181;-67
2021/04/14 02:17:48;;;;;;;12.20;2.57;;;;;;;-0.16;83.67;102037.97;4993788;28;20178;-67
2021/04/14 02:20:15;;;;;;;15.57;3.63;;;;;;;-0.19;83.75;102043.19;4993392;28;20609;-67
2021/04/14 02:22:40;;;;;;;13.90;2.83;;;;;;;-0.19;84.43;102044.94;4993350;28;20181;-67
2021/04/14 02:25:08;;;;;;;13.07;2.00;;;;;;;-0.23;84.02;102041.41;4993222;28;20173;-67
2021/04/14 02:27:33;;;;;;;12.70;2.73;;;;;;;-0.24;84.56;102038.75;4993059;28;20704;-67
2021/04/14 02:29:58;;;;;;;8.40;2.40;;;;;;;-0.32;84.81;102036.94;4995555;28;20201;-67
2021/04/14 02:32:24;;;;;;;11.53;2.47;;;;;;;-0.38;85.64;102034.22;4995417;28;20189;-67
2021/04/14 02:34:49;;;;;;;12.60;2.90;;;;;;;-0.45;85.16;102037.66;4995697;28;20177;-67
2021/04/14 02:37:14;;;;;;;14.83;2.53;;;;;;;-0.47;85.43;102034.13;4995219;28;20169;-67
2021/04/14 02:39:39;;;;;;;14.27;3.37;;;;;;;-0.48;85.89;102042.84;4996389;28;20232;-67
2021/04/14 02:42:05;;;;;;;9.87;2.90;;;;;;;-0.51;86.19;102031.47;4996237;28;20184;-67
2021/04/14 02:44:30;;;;;;;16.43;2.37;;;;;;;-0.50;86.23;102043.72;4996445;28;20181;-67
2021/04/14 02:46:56;;;;;;;14.80;2.23;;;;;;;-0.54;86.88;102047.16;4996644;28;20208;-67
2021/04/14 02:49:24;;;;;;;7.20;2.17;;;;;;;-0.57;86.67;102048.00;4995713;28;20681;-67
2021/04/14 02:51:49;;;;;;;21.13;3.10;;;;;;;-0.56;86.76;102043.63;4995297;28;20182;-67
2021/04/14 02:54:14;;;;;;;7.63;2.73;;;;;;;-0.51;87.10;102037.59;4996089;28;20202;-67
2021/04/14 02:56:39;;;;;;;21.97;2.90;;;;;;;-0.47;87.25;102038.50;4996190;28;20185;-67
2021/04/14 02:59:05;;;;;;;10.20;2.50;;;;;;;-0.52;86.85;102041.06;4995839;28;20198;-67
2021/04/14 03:01:30;;;;;;;14.43;2.80;;;;;;;-0.55;87.10;102046.28;4996133;28;20193;-67
2021/04/14 03:03:55;;;;;;;14.13;2.87;;;;;;;-0.50;87.26;102039.34;4994697;28;20368;-68
2021/04/14 03:06:21;;;;;;;9.97;2.50;;;;;;;-0.50;87.07;102033.22;4995867;28;20251;-67
2021/04/14 03:08:46;;;;;;;10.20;2.67;;;;;;;-0.52;87.13;102038.44;4995968;28;20210;-67
2021/04/14 03:11:11;;;;;;;15.63;2.20;;;;;;;-0.49;87.01;102035.84;4994990;28;20202;-67
2021/04/14 03:13:37;;;;;;;17.40;3.13;;;;;;;-0.42;86.84;102035.06;4996096;28;20180;-67
2021/04/14 03:16:02;;;;;;;12.67;3.17;;;;;;;-0.46;86.82;102035.00;4995765;28;20597;-67
2021/04/14 03:18:28;;;;;;;11.60;2.90;;;;;;;-0.51;86.67;102029.72;4995661;28;20190;-67
2021/04/14 03:20:54;;;;;;;17.37;2.77;;;;;;;-0.55;87.28;102037.53;4994509;28;20185;-67
2021/04/14 03:23:19;;;;;;;16.23;3.07;;;;;;;-0.57;87.28;102036.63;4994439;28;20232;-67
2021/04/14 03:25:44;;;;;;;15.20;2.73;;;;;;;-0.60;88.01;102037.47;4994565;28;20650;-67
2021/04/14 03:28:12;;;;;;;5.47;2.13;;;;;;;-0.69;87.63;102038.25;4995423;28;20204;-67
2021/04/14 03:30:37;;;;;;;10.60;3.10;;;;;;;-0.68;88.68;102037.41;4994501;28;20178;-67
2021/04/14 03:33:03;;;;;;;20.10;2.90;;;;;;;-0.71;88.73;102039.09;4995822;28;20288;-66
2021/04/14 03:35:28;;;;;;;5.07;2.00;;;;;;;-0.77;88.67;102042.50;4994862;28;20284;-67
2021/04/14 03:37:54;;;;;;;13.70;2.80;;;;;;;-0.72;88.86;102042.59;4995631;28;20185;-67
2021/04/14 03:40:20;;;;;;;14.57;3.13;;;;;;;-0.68;89.15;102039.13;4994244;28;20255;-67
2021/04/14 03:42:45;;;;;;;10.80;2.97;;;;;;;-0.64;88.90;102036.56;4995268;28;20537;-67
2021/04/14 03:45:17;;;;;;;15.60;3.63;;;;;;;-0.68;89.08;102040.00;4993882;28;20178;-67
2021/04/14 03:47:43;;;;;;;18.87;3.00;;;;;;;-0.59;89.00;102034.00;4995145;28;20197;-67
2021/04/14 03:50:11;;;;;;;19.77;3.77;;;;;;;-0.56;88.17;102041.00;4994877;28;20201;-67
2021/04/14 03:52:37;;;;;;;11.37;3.03;;;;;;;-0.55;88.60;102041.03;4994030;28;20185;-67
2021/04/14 03:55:04;;;;;;;11.77;3.70;;;;;;;-0.57;88.81;102050.63;4995129;28;20542;-67
2021/04/14 03:57:29;;;;;;;10.43;3.20;;;;;;;-0.54;88.88;102045.41;4993712;28;20189;-67
2021/04/14 03:59:55;;;;;;;18.70;3.23;;;;;;;-0.55;88.57;102053.28;4995108;28;20193;-67
2021/04/14 04:02:20;;;;;;;14.07;3.67;;;;;;;-0.56;88.79;102055.00;4995806;28;20185;-68
2021/04/14 04:04:45;;;;;;;16.93;3.43;;;;;;;-0.57;88.89;102055.00;4995620;28;20646;-67
2021/04/14 04:07:10;;;;;;;13.70;3.70;;;;;;;-0.48;89.18;102048.09;4994354;28;20206;-67
2021/04/14 04:09:36;;;;;;;13.20;3.07;;;;;;;-0.48;88.65;102052.47;4994810;28;20231;-66
2021/04/14 04:12:05;;;;;;;17.80;3.73;;;;;;;-0.52;89.04;102054.19;4994770;28;20646;-66
2021/04/14 04:14:33;;;;;;;13.43;3.20;;;;;;;-0.55;89.27;102062.00;4993360;28;20184;-67
2021/04/14 04:16:58;;;;;;;15.00;3.63;;;;;;;-0.48;89.19;102048.09;4994639;28;20193;-67
2021/04/14 04:19:23;;;;;;;16.67;2.77;;;;;;;-0.46;89.00;102066.47;4993658;28;20205;-67
2021/04/14 04:21:48;;;;;;;16.40;3.93;;;;;;;-0.51;89.30;102069.06;4994723;28;20174;-67
2021/04/14 04:24:14;;;;;;;25.27;3.73;;;;;;;-0.51;89.08;102069.06;4994297;28;20192;-67
2021/04/14 04:26:39;;;;;;;17.33;3.83;;;;;;;-0.54;89.07;102066.41;4994250;28;20177;-67
2021/04/14 04:29:04;;;;;;;16.03;3.60;;;;;;;-0.50;89.48;102070.81;4994159;28;20201;-67
2021/04/14 04:31:30;;;;;;;11.87;3.83;;;;;;;-0.44;89.54;102070.88;4993026;28;20197;-67
2021/04/14 04:33:55;;;;;;;15.83;3.53;;;;;;;-0.42;89.21;102076.16;4993417;28;20590;-67
2021/04/14 04:36:21;;;;;;;17.00;3.50;;;;;;;-0.38;88.94;102076.19;4994367;28;20188;-67
2021/04/14 04:38:46;;;;;;;19.83;3.47;;;;;;;-0.36;89.31;102085.00;4994212;28;20194;-67
2021/04/14 04:41:11;;;;;;;16.87;3.50;;;;;;;-0.33;89.04;102082.41;4994129;28;20173;-67
2021/04/14 04:43:36;;;;;;;15.23;3.30;;;;;;;-0.32;88.63;102081.53;4994376;28;20527;-67
2021/04/14 04:46:02;;;;;;;18.93;3.13;;;;;;;-0.33;89.31;102085.03;4992704;28;20586;-67
2021/04/14 04:48:27;;;;;;;20.33;3.83;;;;;;;-0.28;89.10;102084.19;4993720;28;20240;-67
2021/04/14 04:50:52;;;;;;;13.93;3.50;;;;;;;-0.23;88.57;102079.88;4993683;28;20174;-68
2021/04/14 04:53:21;;;;;;;15.00;3.43;;;;;;;-0.18;88.15;102076.44;4992871;28;20182;-68
2021/04/14 04:55:47;;;;;;;18.63;3.90;;;;;;;-0.11;88.29;102085.25;4994072;28;20169;-67
2021/04/14 04:58:13;;;;;;;16.70;3.97;;;;;;;-0.10;88.03;102081.75;4976525;28;20173;-68
2021/04/14 05:00:38;;;;;;;19.03;3.67;;;;;;;-0.11;88.15;102096.63;4993715;28;20245;-68
2021/04/14 05:03:04;;;;;;;20.60;3.80;;;;;;;0.00;87.89;102096.75;4992427;28;20222;-68
2021/04/14 05:05:30;;;;;;;24.17;4.63;;;;;;;-0.12;88.35;102086.13;4992394;28;20213;-67
2021/04/14 05:07:55;;;;;;;19.67;4.37;;;;;;;0.00;88.05;102088.88;4992577;28;20221;-67
2021/04/14 05:10:21;;;;;;;19.27;3.83;;;;;;;0.00;87.97;102088.88;4993040;28;20677;-67
2021/04/14 05:12:51;;;;;;;24.20;4.13;;;;;;;0.13;87.88;102095.13;4992722;28;20650;-64
2021/04/14 05:15:23;;;;;;;12.77;4.07;;;;;;;0.06;88.09;102096.81;4994199;28;20537;-66
2021/04/14 05:17:48;;;;;;;16.60;4.50;;;;;;;0.15;87.58;102096.03;4993863;28;20281;-66
2021/04/14 05:20:15;;;;;;;25.77;4.70;;;;;;;0.23;87.44;102103.09;4993273;28;20663;-66
2021/04/14 05:22:40;;;;;;;22.10;5.60;;;;;;;0.31;87.13;102100.53;4993478;28;20256;-66
2021/04/14 05:25:07;;;;;;;15.40;3.57;;;;;;;0.34;86.94;102095.31;4992540;28;20185;-66
2021/04/14 05:27:32;;;;;;;12.80;3.80;;;;;;;0.34;86.98;102095.31;4993987;28;20213;-66
2021/04/14 05:29:57;;;;;;;9.47;3.37;;;;;;;0.61;86.31;102102.56;4993542;28;20205;-65
2021/04/14 05:32:24;;;;;;;23.17;4.30;;;;;;;0.75;85.67;102102.69;4994373;28;20189;-66
2021/04/14 05:34:49;;;;;;;10.00;2.97;;;;;;;0.90;85.03;102108.94;4992717;28;20181;-66
2021/04/14 05:37:14;;;;;;;15.07;4.03;;;;;;;0.93;85.43;102108.06;4993980;28;20178;-66
2021/04/14 05:39:40;;;;;;;11.23;2.83;;;;;;;1.23;84.36;102117.91;4992379;28;20629;-66
2021/04/14 05:42:05;;;;;;;15.73;3.93;;;;;;;1.17;84.05;102120.50;5033315;22;20239;-67
2021/04/14 05:44:31;;;;;;;8.60;3.47;;;;;;;1.33;83.53;102124.97;5036886;28;20186;-75
2021/04/14 05:46:56;;;;;;;18.80;3.37;;;;;;;1.45;82.92;102119.75;5040585;28;20201;-77
2021/04/14 05:49:21;;;;;;;19.10;4.30;;;;;;;1.48;82.84;102121.53;5030163;28;20227;-77
2021/04/14 05:51:46;;;;;;;25.93;4.03;;;;;;;1.72;82.02;102121.66;5036802;28;20202;-76
2021/04/14 05:54:13;;;;;;;16.60;3.70;;;;;;;1.66;82.28;102126.00;5035757;28;20653;-77
2021/04/14 05:56:38;;;;;;;22.33;3.73;;;;;;;1.65;83.13;102132.16;5034624;28;20170;-77
2021/04/14 05:59:03;;;;;;;16.40;3.20;;;;;;;1.96;82.80;102127.88;5038583;28;20200;-77
2021/04/14 06:01:31;;;;;;;14.43;3.50;;;;;;;2.21;81.54;102129.69;5035685;28;20197;-79
2021/04/14 06:03:56;;;;;;;9.77;2.80;;;;;;;2.51;80.48;102131.50;5037415;28;20182;-78
2021/04/14 06:06:22;;;;;;;13.23;3.37;;;;;;;2.60;79.81;102131.53;5038910;28;20179;-77
2021/04/14 06:08:47;;;;;;;10.47;2.93;;;;;;;2.93;77.97;102142.91;5040397;28;20696;-76
2021/04/14 06:11:13;;;;;;;11.17;2.70;;;;;;;3.14;77.41;102133.22;5038472;28;20184;-77
2021/04/14 06:13:38;;;;;;;9.10;2.30;;;;;;;2.90;77.91;102132.38;5040747;28;20208;-75
2021/04/14 06:16:06;;;;;;;11.47;3.03;;;;;;;3.27;77.16;102127.94;5042700;28;20186;-76
2021/04/14 06:18:31;;;;;;;9.70;2.40;;;;;;;3.48;76.52;102134.91;5037667;28;20167;-77
2021/04/14 06:20:57;;;;;;;9.87;2.70;;;;;;;3.47;76.80;102127.88;5039232;28;20177;-77
2021/04/14 06:23:23;;;;;;;13.83;3.13;;;;;;;3.67;75.67;102128.69;5038542;28;20189;-75
2021/04/14 06:25:58;;;;;;;13.07;3.23;;;;;;;3.07;78.68;102126.22;5039600;28;20169;-77
2021/04/14 06:28:25;;;;;;;13.53;3.60;;;;;;;3.75;75.80;102137.47;5043119;28;20194;-78
2021/04/14 06:30:52;;;;;;;12.97;3.67;;;;;;;3.59;76.58;102136.63;5041968;28;20222;-77
2021/04/14 06:33:20;;;;;;;7.33;2.70;;;;;;;3.58;76.48;102134.88;5041158;28;20187;-76
2021/04/14 06:35:46;;;;;;;11.60;3.63;;;;;;;3.72;75.81;102137.50;5039909;28;20167;-77
2021/04/14 06:38:15;;;;;;;12.60;5.43;;;;;;;3.64;75.79;102133.97;5039459;28;20179;-77
2021/04/14 06:40:54;;;;;;;13.67;3.50;;;;;;;3.75;75.34;102140.13;5041782;28;20187;-77
2021/04/14 06:43:37;;;;;;;13.27;5.50;;;;;;;3.63;76.03;102143.66;5043460;28;20207;-77
2021/04/14 06:46:10;;;;;;;18.03;3.47;;;;;;;3.78;75.86;102148.03;5045449;28;20157;-77
2021/04/14 06:48:42;;;;;;;15.03;2.83;;;;;;;3.43;75.89;102132.28;5027002;28;20203;-78
2021/04/14 06:51:29;;;;;;;15.40;3.20;;;;;;;3.44;77.06;102136.69;5043322;28;20180;-77
2021/04/14 06:54:06;;;;;;;11.17;4.27;;;;;;;3.67;75.28;102133.97;5043539;28;20163;-78
2021/04/14 06:56:32;;;;;;;17.97;6.37;;;;;;;3.80;74.72;102137.44;5042641;28;20175;-77
2021/04/14 06:59:03;;;;;;;12.93;3.27;;;;;;;4.18;73.69;102138.13;5025718;28;20179;-77
2021/04/14 07:01:37;;;;;;;17.70;5.07;;;;;;;4.18;73.56;102139.91;5036491;28;20188;-77
2021/04/14 07:04:17;;;;;;;11.80;3.90;;;;;;;4.38;71.46;102130.06;5040086;28;20161;-77
2021/04/14 07:06:46;;;;;;;19.17;4.73;;;;;;;4.44;70.88;102134.41;5040930;28;20297;-76
2021/04/14 07:09:37;;;;;;;16.67;4.30;;;;;;;4.46;70.38;102138.84;5038531;28;20625;-77
2021/04/14 07:12:07;;;;;;;12.60;2.80;;;;;;;4.36;70.56;102143.28;5037371;28;20192;-77
2021/04/14 07:14:33;;;;;;;8.20;2.53;;;;;;;4.25;72.08;102153.06;5038099;28;20181;-76
2021/04/14 07:17:05;;;;;;;11.33;2.63;;;;;;;4.16;71.65;102136.38;5037553;28;20184;-77
2021/04/14 07:19:54;;;;;;;8.17;2.73;;;;;;;4.03;71.17;102152.28;5036943;28;20532;-77
2021/04/14 07:22:49;;;;;;;14.10;3.30;;;;;;;3.88;71.44;102147.09;5039419;28;20200;-77
2021/04/14 07:25:26;;;;;;;14.67;2.90;;;;;;;4.23;71.09;102149.56;5040434;28;20152;-77
2021/04/14 07:28:07;;;;;;;10.73;2.83;;;;;;;4.27;70.60;102153.03;5039748;28;20180;-76
2021/04/14 07:31:00;;;;;;;9.50;2.73;;;;;;;4.08;70.82;102141.69;5037536;28;20510;-78
2021/04/14 07:33:40;;;;;;;13.70;3.67;;;;;;;4.85;69.08;102155.28;5021058;28;20245;-78
2021/04/14 07:36:27;;;;;;;10.27;3.03;;;;;;;4.30;69.29;102147.75;5044110;28;20153;-76
2021/04/14 07:39:02;;;;;;;12.70;3.23;;;;;;;4.35;70.81;102162.69;5046246;28;20168;-76
2021/04/14 07:41:43;;;;;;;10.03;3.00;;;;;;;4.71;68.96;102158.03;5041377;28;20199;-78
2021/04/14 07:44:18;;;;;;;12.53;3.07;;;;;;;4.77;67.26;102151.81;5040028;28;20191;-76
2021/04/14 07:46:46;;;;;;;8.17;2.67;;;;;;;4.73;66.92;102153.59;5038141;28;20604;-77
2021/04/14 07:49:11;;;;;;;8.07;2.80;;;;;;;4.21;68.61;102147.81;5039984;28;20175;-77
2021/04/14 07:51:37;;;;;;;10.20;2.57;;;;;;;4.51;66.92;102152.91;5036328;28;20196;-77
2021/04/14 07:54:03;;;;;;;10.53;2.47;;;;;;;4.84;64.74;102151.78;5041913;28;20173;-77
2021/04/14 07:56:41;;;;;;;9.07;2.37;;;;;;;4.64;64.23;102151.03;5039926;28;20240;-78
2021/04/14 07:59:09;;;;;;;11.20;2.47;;;;;;;4.65;65.11;102153.66;5020481;28;20625;-77
2021/04/14 08:01:37;;;;;;;17.97;3.00;;;;;;;4.62;66.47;102161.63;5038377;28;20193;-77
2021/04/14 08:04:19;;;;;;;12.67;3.10;;;;;;;5.05;65.05;102163.91;5038837;28;20168;-77
2021/04/14 08:06:45;;;;;;;7.80;2.53;;;;;;;4.98;65.50;102156.94;5040791;28;20164;-78
2021/04/14 08:09:17;;;;;;;11.37;3.23;;;;;;;4.56;66.08;102161.69;5040002;28;20176;-77
2021/04/14 08:11:43;;;;;;;10.67;3.63;;;;;;;5.26;64.42;102171.66;5037195;28;20218;-77
2021/04/14 08:14:21;;;;;;;8.17;2.30;;;;;;;4.84;65.12;102159.72;5036687;28;20640;-77
2021/04/14 08:16:50;;;;;;;9.43;2.60;;;;;;;5.39;63.54;102166.25;5036647;28;20186;-77
2021/04/14 08:19:20;;;;;;;6.97;2.63;;;;;;;5.44;62.38;102161.78;5036461;28;20182;-77
2021/04/14 08:22:05;;;;;;;6.60;2.37;;;;;;;5.65;61.88;102158.91;5040923;28;20214;-77
2021/04/14 08:24:52;;;;;;;8.57;2.47;;;;;;;6.41;60.70;102157.94;5017589;28;20184;-77
2021/04/14 08:27:30;;;;;;;5.33;1.90;;;;;;;7.10;58.18;102165.66;5034619;28;20188;-76
2021/04/14 08:30:08;;;;;;;5.70;2.30;;;;;;;6.97;57.53;102172.06;5037431;28;20165;-77
2021/04/14 08:32:44;;;;;;;7.03;2.20;;;;;;;6.30;57.91;102164.28;5038121;28;20206;-78
2021/04/14 08:35:46;;;;;;;7.80;2.27;;;;;;;7.04;57.13;102168.41;5037667;28;20157;-77
2021/04/14 08:38:17;;;;;;;4.57;1.90;;;;;;;6.55;55.00;102153.28;5005836;28;20188;-78
2021/04/14 08:41:01;;;;;;;7.10;2.23;;;;;;;6.13;56.88;102153.91;5037975;28;20179;-77
2021/04/14 08:43:57;;;;;;;11.83;2.10;;;;;;;6.07;59.14;102159.31;5035047;28;20214;-77
2021/04/14 08:46:34;;;;;;;7.30;2.33;;;;;;;6.13;57.78;102145.97;5036635;28;20157;-76
2021/04/14 08:49:21;;;;;;;6.80;2.30;;;;;;;6.48;57.29;102154.28;5041838;28;20189;-77
2021/04/14 08:51:48;;;;;;;6.23;1.83;;;;;;;5.93;55.10;102162.97;5035806;28;20198;-77
2021/04/14 08:54:17;;;;;;;2.83;1.50;;;;;;;5.79;55.35;102156.06;5036843;28;20591;-77
2021/04/14 08:56:42;;;;;;;5.50;2.50;;;;;;;6.40;54.53;102155.31;5037062;28;20191;-77
2021/04/14 08:59:10;;;;;;;5.77;2.03;;;;;;;6.57;53.08;102156.78;5038269;28;20689;-77
2021/04/14 09:01:35;;;;;;;4.30;1.73;;;;;;;7.15;53.55;102157.63;5036952;28;20191;-77
2021/04/14 09:04:01;;;;;;;4.93;1.50;;;;;;;7.96;52.29;102148.06;5036981;28;20214;-77
2021/04/14 09:06:27;;;;;;;5.83;1.90;;;;;;;6.81;52.52;102152.00;5039431;28;20174;-78
2021/04/14 09:08:54;;;;;;;5.57;2.20;;;;;;;6.28;56.73;102146.59;5038681;28;20219;-77
2021/04/14 09:11:25;;;;;;;4.60;1.80;;;;;;;6.27;51.55;102144.84;5038194;28;20172;-77
2021/04/14 09:14:00;;;;;;;5.63;1.70;;;;;;;6.23;53.23;102143.16;5037086;28;20564;-77
2021/04/14 09:16:31;;;;;;;6.67;1.73;;;;;;;6.38;54.03;102144.72;5035037;28;20172;-78
2021/04/14 09:19:14;;;;;;;5.73;1.53;;;;;;;6.49;52.22;102144.56;5036398;28;20153;-78
2021/04/14 09:21:45;;;;;;;6.20;1.60;;;;;;;7.03;50.58;102141.88;5019896;28;20195;-77
2021/04/14 09:24:28;;;;;;;6.50;2.10;;;;;;;7.33;49.42;102145.78;5033555;28;20214;-77
2021/04/14 09:26:56;;;;;;;6.90;1.80;;;;;;;7.39;48.90;102148.31;5035953;28;20160;-76
2021/04/14 09:29:48;;;;;;;6.57;1.70;;;;;;;7.06;49.87;102147.13;5034253;28;20176;-76
2021/04/14 09:32:15;;;;;;;2.77;1.23;;;;;;;6.56;47.53;102141.78;5041046;28;20220;-77
2021/04/14 09:34:52;;;;;;;3.60;1.13;;;;;;;6.20;49.03;102132.59;5033664;28;20181;-77
2021/04/14 09:37:17;;;;;;;5.20;1.47;;;;;;;6.19;49.51;102140.56;5037588;28;20162;-77
2021/04/14 09:39:43;;;;;;;3.83;1.50;;;;;;;6.60;45.43;102137.28;5039679;28;20705;-74
2021/04/14 09:42:23;;;;;;;2.97;1.13;;;;;;;6.50;46.11;102131.25;5038097;28;20206;-77
2021/04/14 09:44:51;;;;;;;2.03;0.93;;;;;;;7.02;45.33;102140.13;5038028;28;20210;-77
2021/04/14 09:47:33;;;;;;;2.47;1.00;;;;;;;7.91;42.63;102136.66;5037840;28;20199;-77
2021/04/14 09:50:15;;;;;;;5.77;1.27;;;;;;;8.52;41.73;102127.31;5035867;28;20159;-77
2021/04/14 09:52:43;;;;;;;6.53;1.40;;;;;;;7.91;42.14;102136.66;5036887;28;20191;-77
2021/04/14 09:55:16;;;;;;;2.60;1.43;;;;;;;7.11;44.04;102119.63;5037259;28;20174;-77
2021/04/14 09:57:43;;;;;;;3.07;1.20;;;;;;;6.28;45.74;102127.16;5038177;28;20153;-77
2021/04/14 10:00:24;;;;;;;2.70;1.20;;;;;;;6.59;46.12;102133.75;5037202;28;20207;-77
2021/04/14 10:02:54;;;;;;;3.00;1.20;;;;;;;6.83;45.23;102132.50;5036497;28;20296;-77
2021/04/14 10:05:19;;;;;;;1.73;1.10;;;;;;;7.77;44.23;102128.94;5035248;28;20175;-77
2021/04/14 10:07:45;;;;;;;1.87;1.00;;;;;;;9.03;40.64;102122.50;5018741;28;20227;-76
2021/04/14 10:10:16;;;;;;;6.97;1.10;;;;;;;8.39;42.34;102122.28;5018699;28;20525;-77
2021/04/14 10:12:41;;;;;;;1.77;0.87;;;;;;;8.64;40.51;102121.72;5037000;28;20215;-77
2021/04/14 10:15:07;;;;;;;2.20;1.00;;;;;;;8.15;41.48;102125.47;5035697;28;20184;-77
2021/04/14 10:17:33;;;;;;;4.07;1.20;;;;;;;7.44;43.98;102115.47;5037574;28;20600;-76
2021/04/14 10:20:13;;;;;;;3.20;1.23;;;;;;;7.52;45.07;102123.28;5036608;28;20208;-76
2021/04/14 10:22:43;;;;;;;2.77;1.30;;;;;;;7.70;44.04;102120.22;5036731;28;20202;-77
2021/04/14 10:25:15;;;;;;;4.70;1.67;;;;;;;7.63;43.09;102123.94;5037017;28;20651;-78
2021/04/14 10:27:41;;;;;;;4.83;1.43;;;;;;;6.68;43.79;102114.16;5038191;28;20570;-76
2021/04/14 10:30:08;;;;;;;1.87;0.90;;;;;;;6.64;43.81;102122.19;5036407;28;20181;-78
2021/04/14 10:32:34;;;;;;;4.30;1.17;;;;;;;7.04;43.55;102125.94;5042957;28;20203;-76
2021/04/14 10:35:12;;;;;;;1.73;1.10;;;;;;;7.79;40.96;102114.72;5029164;28;20539;-76
2021/04/14 10:37:45;;;;;;;3.77;1.00;;;;;;;7.64;41.59;102108.88;5037081;28;20179;-78
2021/04/14 10:40:19;;;;;;;3.17;1.00;;;;;;;7.40;42.84;102110.22;5038014;28;20274;-76
2021/04/14 10:42:44;;;;;;;3.27;1.13;;;;;;;6.83;45.96;102113.06;5037428;28;20214;-77
2021/04/14 10:45:13;;;;;;;2.67;1.00;;;;;;;7.27;44.58;102109.59;5038086;28;20183;-78
2021/04/14 10:47:40;;;;;;;3.73;1.30;;;;;;;7.04;45.22;102110.00;5037011;28;20230;-77
2021/04/14 10:50:18;;;;;;;3.07;0.90;;;;;;;6.38;45.46;102115.56;5039314;28;20189;-77
2021/04/14 10:52:45;;;;;;;4.13;1.33;;;;;;;6.31;46.15;102108.56;5038778;28;20209;-76
2021/04/14 10:55:14;;;;;;;3.00;1.30;;;;;;;6.63;45.36;102112.50;5036577;28;20187;-77
2021/04/14 10:57:42;;;;;;;3.97;1.30;;;;;;;6.99;43.71;102122.47;5036165;28;20168;-77
2021/04/14 11:00:14;;;;;;;1.67;0.80;;;;;;;7.30;43.43;102120.16;5020120;28;20185;-78
2021/04/14 11:02:43;;;;;;;4.10;1.30;;;;;;;7.00;44.66;102120.69;5036437;28;20757;-76
2021/04/14 11:05:10;;;;;;;1.23;1.00;;;;;;;7.01;44.02;102111.84;5035308;28;20726;-78
2021/04/14 11:07:36;;;;;;;7.20;1.10;;;;;;;7.70;42.71;102125.56;5034432;28;20205;-76
2021/04/14 11:10:04;;;;;;;4.27;1.10;;;;;;;10.39;37.54;102110.56;5034723;28;20717;-75
2021/04/14 11:12:30;;;;;;;5.83;1.13;;;;;;;12.69;33.25;102111.03;5035880;28;20262;-77
2021/04/14 11:14:57;;;;;;;4.57;1.00;;;;;;;14.53;29.15;102106.31;5034713;28;20672;-76
2021/04/14 11:17:28;;;;;;;4.13;1.40;;;;;;;16.60;26.81;102105.06;5034598;28;20271;-77
2021/04/14 11:20:06;;;;;;;2.13;0.97;;;;;;;13.28;30.03;102104.94;5035579;28;20720;-75
2021/04/14 11:22:45;;;;;;;2.73;1.13;;;;;;;11.58;32.89;102102.03;5035085;28;20196;-76
2021/04/14 11:25:32;;;;;;;1.93;1.00;;;;;;;9.17;38.47;102092.81;5033882;28;20176;-76
2021/04/14 11:28:04;;;;;;;4.70;2.23;;;;;;;8.43;38.46;102105.34;5017899;28;20231;-76
2021/04/14 11:30:30;;;;;;;4.37;1.40;;;;;;;7.94;40.48;102096.72;5017232;28;20189;-76
2021/04/14 11:32:58;;;;;;;3.37;1.10;;;;;;;8.19;39.94;102115.66;5033872;28;20200;-75
2021/04/14 11:35:42;;;;;;;8.67;1.10;;;;;;;7.71;41.99;102103.38;5033806;28;20259;-75